Decoded Metar for KCRS (CORSICANA in TX, USA) (IATA:CRS) | Meteo·Mobile Aviation Weather
aviador You're here:

KCRS Decoded Metar

CORSICANA in TX, USA
Report Time2018-12-18 15:53:00
UTC Time2018-12-18 16:48:04
Flight Rules vfr VFR
Wind130° at 03 kt
W.Decomp.*RWY 14: 2.9 kt HW 0.8 kt LCW
RWY 20: 0.7 kt HW 2.9 kt LCW
W.Rank130° ranks 9
Current wind is below 130° avg. (6.5)
Visibility9656 m
Phenomena:Mist
Clouds:N/A
CeilingNone
Temp07°C (ISA -7)
Dew Point07°C (100% RH)
AAT5.2°C
QNH1022 hPa
Density Alt-591 ft
Elevation436 ft
Report Wrong Elevation
Raw Report
KCRS 181553Z AUTO 13003KT 6SM BR CLR 07/07 A3018 RMK AO2 SLP219
T00720067=

Extra information for KCRS:More info

Metar Taf Metar & Taf Last 4 Metars F.Rules Stats Wind Profile Meteogram Temp Stats Airport Information Weather charts Add Link Nearby VenuesMetar ALERT Operation Metar Decoded Social comments

AIRNAV info for KCRS